If you wish to contribute or participate in the discussions about articles you are invited to join SKYbrary as a registered user

 Actions

Angoon Seaplane Base

From SKYbrary Wiki

PAGN
Airport
ICAO: PAGN – IATA: AGN
Summary
Name Angoon Seaplane Base
Region North America
Territory Alaska US.gif
Location Angoon, Alaska
Serving Angoon
Type seaplane base
Coordinates 57° 30' 12.9996", -134° 35' 6"
Close to Coastal Waters Of Southeast Alaska And British Columbia
Runways
Designator Length Width Surface ROPS
NW/SE 3048 m10,000 ft 274 m898.95 ft WATER /
METAR
Observation PAGN 131756Z AUTO 07006KT 10SM -RA OVC034 08/07 A3028 RMK AO2 SLP242 P0003 60003 T00780067 10083 20078 53000
Station Angoon
Date/Time 13 December 2017 17:56:00
Wind direction 70°
Wind speed 06 kts
Lowest cloud amount overcast
Temperature 7.8°C
Dew point 6.7°C
Humidity 92%
QNH hPa
Weather condition light rain

Maps

Terrain

Loading map...

Airport Layout

Loading map...


Accidents & Serious Incidents at or in vicinity of PAGN

None on SKYbrary